Terminal Aerodrome Forecast
Issued by NWS

Home | Current Version | Previous Version | Text Only | Print | Product List | Glossary Off
Versions: 1 2 3 4 5 6 7 8 9 10 11 12 13 14 15

000
FTUS45 KGGW 251016 AAA
TAFOLF
TAF AMD
KOLF 251016Z 2510/2606 21007KT P6SM SCT035
     FM251100 24017KT P6SM BKN035
     FM251500 27017G25KT P6SM BKN040
     FM260400 30009KT P6SM SCT045=

USA.gov is the U.S. government's official web portal to all federal, state and local government web resources and services.